Cathedral City, CA

10:45 PM PDT on September 30, 2014 (GMT -0700)
Palm Springs International | Change Station
CLOSE
Current Station
Airport
Location: Palm Springs,
Elevation: 476 ft
Nearby Weather Stations

Elev 476 ft 33.82 °N, 116.50 °W | Updated 52 minutes ago

Clear
Clear
81 °F
Feels Like 81 °F
N
0
Wind Variable Wind from North

Today
High -- | Low -- °F
--% Chance of Precip.
Yesterday
High -- | Low -- °F
Precip. -- in
6:39 AM 6:31 PM
Waxing Crescent, 44% visible
Pressure 29.71 in
Visibility 10.0 miles
Clouds Clear
Dew Point 43 °F
Humidity 26%
Rainfall 0.00 in
Snow Depth 0 in , 0 in , 0 in
UV 0 out of 12
Pollen 5.10 out of 12
Ozone Good
Flu Activity Not available.
METAR KPSP 010453Z 00000KT 10SM CLR 27/06 A2972 RMK AO2 SLP061 T02720061

More Conditions Fewer Conditions

Pressure 29.71 in
Visibility 10.0 miles
Clouds Clear
Dew Point 43 °F
Humidity 26%
Rainfall 0.00 in
Snow Depth 0 in , 0 in , 0 in
UV 0 out of 12
Pollen 5.10 out of 12
Ozone Good
Flu Activity Not available.
METAR KPSP 010453Z 00000KT 10SM CLR 27/06 A2972 RMK AO2 SLP061 T02720061

More Conditions Fewer Conditions

10-Day Weather Forecast

Almanac

Astronomy

Sep. 30, 2014 Rise Set
Actual Time 6:39 AM PDT 6:31 PM PDT
Civil Twilight 6:14 AM PDT 6:56 PM PDT
Nautical Twilight 5:45 AM PDT 7:25 PM PDT
Astronomical Twilight 5:16 AM PDT 7:54 PM PDT
Moon 12:39 PM PDT (9/30) 11:18 PM PDT (9/30)
Length of Visible Light 12h 41m
Length of Day
11h 51m
Tomorrow will be 2m 5s shorter.
Waxing Crescent, 44% of the Moon is Illuminated
Oct 1
Waxing Crescent
Oct 1
First Quarter
Oct 8
Full
Oct 15
Last Quarter
Oct 23
New

Yesterday's Extremes

State Highs State Lows

Community

WunderPhotos

Upload Photos

1,757,875 photos uploaded!

Nearby

Air Quality

  Air Quality AQ Index Pollutant
Yesterday Good
OZONE
Yesterday Good
PM10
Current Good
OZONE
Wednesday Moderate
OZONE
Wednesday Good
PM10
Wednesday Good
CO
Wednesday Good
NO2

Snow Depth

Station Depth Elevation
Tahoe City Cross 0 in 6750 ft
Monitor Pass 0 in 8350 ft
Dismal Swamp 0 in 7000 ft
Summit Meadow 0 in 9122 ft
Sonora Pass 0 in 8800 ft

Earthquake Activity

City Distance Mag. Time & Date
Avalon, California 120 miles 2.6 1:28 PM PDT
2014-09-30
Minimum magnitude displayed is 2.5.

Coastal Water Temperatures

Place Temperature
No Stations Reporting

Nearby Weather Stations